Pinson, Alabama
Current Conditions -  °F | °C
As of 4:29 AM on Sunday 21 Dec 2014 (Local Time) from KBHM Reporting Station
Overcast Overcast  
Wind Chill: 40°   Ceiling: 1000
Heat Index: 43°   Visibility: 8mi
Dew Point: 39°   Wind: 5mph
Humidity: 86%   Direction: 50°NE
Pressure: 30.19"   Gusts: NA
Location:  33.69°N, 86.68°W
Report Text: KBHM 211029Z 05004KT 8SM OVC010 06/04 A3019 RMK AO2 T00610039
Loading
Personal Weather Stations






























Interactive Weather Map New forecast layout! Learn more

10-Day Weather Forecast

Advertisements
Track Severe Weather on mobile